Time;durP1;ratioP1;P1;durP2;ratioP2;P2;SDS_P1;SDS_P2;PMS_P1;PMS_P2;Temp;Humidity;BMP_temperature;BMP_pressure;BME280_temperature;BME280_humidity;BME280_pressure;Samples;Min_cycle;Max_cycle;Signal;HPM_P1;HPM_P2
2024/03/17 00:01:34;;;;;;;;;;;;;;;4.32;100.00;100377.97;4992519;28;20049;-85
2024/03/17 00:04:02;;;;;;;;;;;;;;;4.32;100.00;100380.59;4989539;28;20403;-89
2024/03/17 00:06:27;;;;;;;;;;;;;;;4.31;100.00;100384.13;4991294;28;19997;-88
2024/03/17 00:08:53;;;;;;;;;;;;;;;4.27;100.00;100375.38;4972715;28;20012;-82
2024/03/17 00:11:19;;;;;;;;;;;;;;;4.25;100.00;100373.66;4972300;28;19925;-86
2024/03/17 00:13:44;;;;;;;;;;;;;;;4.25;100.00;100368.41;4972956;28;19926;-83
2024/03/17 00:16:09;;;;;;;;;;;;;;;4.25;100.00;100364.03;4973885;28;19918;-84
2024/03/17 00:18:34;;;;;;;;;;;;;;;4.17;100.00;100363.22;4973338;28;19925;-83
2024/03/17 00:21:00;;;;;;;;;;;;;;;4.14;100.00;100360.63;4972538;28;19922;-88
2024/03/17 00:23:25;;;;;;;;;;;;;;;4.12;100.00;100363.25;4966560;28;20017;-84
2024/03/17 00:25:50;;;;;;;;;;;;;;;4.10;100.00;100365.03;4981506;28;19922;-86
2024/03/17 00:28:16;;;;;;;;;;;;;;;4.13;100.00;100364.13;4984923;28;20293;-85
2024/03/17 00:30:41;;;;;;;;;;;;;;;4.08;100.00;100366.78;4983512;28;20369;-84
2024/03/17 00:33:07;;;;;;;;;;;;;;;4.06;100.00;100363.28;4973990;28;19980;-84
2024/03/17 00:35:33;;;;;;;;;;;;;;;4.04;100.00;100353.69;4988260;28;19921;-85
2024/03/17 00:37:58;;;;;;;;;;;;;;;4.03;100.00;100352.81;4965063;28;19976;-84
2024/03/17 00:40:23;;;;;;;;;;;;;;;3.96;100.00;100356.38;4979498;28;20075;-84
2024/03/17 00:42:48;;;;;;;;;;;;;;;4.00;100.00;100350.22;4959901;28;19922;-82
2024/03/17 00:45:14;;;;;;;;;;;;;;;3.98;100.00;100354.63;4980784;28;19922;-86
2024/03/17 00:47:40;;;;;;;;;;;;;;;3.90;100.00;100346.78;4966365;28;20358;-84
2024/03/17 00:50:07;;;;;;;;;;;;;;;3.88;100.00;100339.81;4982764;28;19937;-88
2024/03/17 00:52:32;;;;;;;;;;;;;;;3.84;100.00;100344.22;4981593;28;20297;-90
2024/03/17 00:54:57;;;;;;;;;;;;;;;3.82;100.00;100338.13;4981780;28;19918;-83
2024/03/17 00:57:23;;;;;;;;;;;;;;;3.85;100.00;100339.84;4986595;28;19947;-83
2024/03/17 00:59:48;;;;;;;;;;;;;;;3.77;100.00;100342.53;4965079;28;19925;-82
2024/03/17 01:02:16;;;;;;;;;;;;;;;3.83;100.00;100337.25;4964370;28;19929;-86
2024/03/17 01:04:42;;;;;;;;;;;;;;;3.82;100.00;100323.25;4964570;28;19918;-83
2024/03/17 01:07:07;;;;;;;;;;;;;;;3.89;100.00;100323.22;4977944;28;20393;-87
2024/03/17 01:09:32;;;;;;;;;;;;;;;3.82;100.00;100314.53;4986645;28;19925;-89
2024/03/17 01:11:57;;;;;;;;;;;;;;;3.80;100.00;100316.28;4989065;28;20346;-85
2024/03/17 01:14:23;;;;;;;;;;;;;;;3.75;100.00;100321.56;4973566;28;19924;-80
2024/03/17 01:16:50;;;;;;;;;;;;;;;3.75;100.00;100320.66;4989137;28;19945;-83
2024/03/17 01:19:15;;;;;;;;;;;;;;;3.68;100.00;100318.97;4990075;28;19972;-84
2024/03/17 01:21:40;;;;;;;;;;;;;;;3.69;100.00;100310.25;4973172;28;19921;-81
2024/03/17 01:24:05;;;;;;;;;;;;;;;3.67;100.00;100318.13;4989317;28;19976;-83
2024/03/17 01:26:31;;;;;;;;;;;;;;;3.63;100.00;100316.38;4987744;28;19922;-83
2024/03/17 01:28:56;;;;;;;;;;;;;;;3.66;100.00;100321.63;4988842;28;19922;-82
2024/03/17 01:31:21;;;;;;;;;;;;;;;3.63;100.00;100308.53;4989831;28;19928;-83
2024/03/17 01:33:46;;;;;;;;;;;;;;;3.65;100.00;100309.38;4990264;28;19918;-84
2024/03/17 01:36:12;;;;;;;;;;;;;;;3.63;100.00;100305.91;4972524;28;19929;-83
2024/03/17 01:38:37;;;;;;;;;;;;;;;3.59;100.00;100304.16;4989427;28;20349;-86
2024/03/17 01:41:04;;;;;;;;;;;;;;;3.53;100.00;100294.63;4987066;28;20443;-87
2024/03/17 01:43:29;;;;;;;;;;;;;;;3.55;100.00;100291.97;4988934;28;19917;-83
2024/03/17 01:45:54;;;;;;;;;;;;;;;3.55;100.00;100289.38;4972071;28;20493;-86
2024/03/17 01:48:20;;;;;;;;;;;;;;;3.51;100.00;100285.91;4989627;28;19922;-82
2024/03/17 01:50:47;;;;;;;;;;;;;;;3.53;100.00;100284.13;4990145;28;19918;-82
2024/03/17 01:53:13;;;;;;;;;;;;;;;3.52;100.00;100282.38;4988683;28;19925;-83
2024/03/17 01:55:39;;;;;;;;;;;;;;;3.50;100.00;100280.66;4986675;28;20313;-83
2024/03/17 01:58:07;;;;;;;;;;;;;;;3.47;100.00;100283.31;4990691;28;19961;-85
2024/03/17 02:00:34;;;;;;;;;;;;;;;3.47;100.00;100275.44;4994064;28;19922;-82
2024/03/17 02:02:59;;;;;;;;;;;;;;;3.49;100.00;100268.44;4993884;28;20014;-84
2024/03/17 02:05:24;;;;;;;;;;;;;;;3.48;100.00;100271.91;4977024;28;20026;-84
2024/03/17 02:07:49;;;;;;;;;;;;;;;3.41;100.00;100279.81;4991713;28;19917;-84
2024/03/17 02:10:15;;;;;;;;;;;;;;;3.42;100.00;100276.31;4991756;28;19922;-83
2024/03/17 02:12:40;;;;;;;;;;;;;;;3.45;100.00;100278.94;4993390;28;20289;-84
2024/03/17 02:15:06;;;;;;;;;;;;;;;3.41;100.00;100271.94;4993596;28;20369;-84
2024/03/17 02:17:32;;;;;;;;;;;;;;;3.38;100.00;100274.63;4993805;28;19924;-86
2024/03/17 02:19:57;;;;;;;;;;;;;;;3.38;100.00;100278.97;4992050;28;20280;-87
2024/03/17 02:22:22;;;;;;;;;;;;;;;3.39;100.00;100270.25;4992615;28;19922;-85
2024/03/17 02:24:48;;;;;;;;;;;;;;;3.37;100.00;100261.53;4992989;28;19914;-86
2024/03/17 02:27:13;;;;;;;;;;;;;;;3.34;100.00;100264.16;4992223;28;19928;-85
2024/03/17 02:29:39;;;;;;;;;;;;;;;3.33;100.00;100268.50;4993504;28;20373;-82
2024/03/17 02:32:07;;;;;;;;;;;;;;;3.31;100.00;100267.66;4993189;28;20309;-83
2024/03/17 02:34:33;;;;;;;;;;;;;;;3.37;100.00;100261.53;4991545;28;19918;-84
2024/03/17 02:36:58;;;;;;;;;;;;;;;3.36;100.00;100255.41;4991902;28;20292;-84
2024/03/17 02:41:57;;;;;;;;;;;;;;;3.41;100.00;100251.00;4991758;28;19930;-82
2024/03/17 08:25:57;;;;;;;;;;;;;;;5.81;100.00;100238.75;4974374;28;19937;-88
2024/03/17 08:28:23;;;;;;;;;;;;;;;5.80;100.00;100234.38;4974490;28;19926;-85
2024/03/17 08:30:55;;;;;;;;;;;;;;;5.82;100.00;100243.09;4974578;28;19918;-86
2024/03/17 08:33:22;;;;;;;;;;;;;;;5.81;100.00;100239.59;4974049;28;19976;-88
2024/03/17 08:35:55;;;;;;;;;;;;;;;5.82;100.00;100241.34;4956921;28;19984;-87
2024/03/17 08:38:20;;;;;;;;;;;;;;;5.84;100.00;100238.69;4972620;28;19926;-88
2024/03/17 08:40:46;;;;;;;;;;;;;;;5.78;100.00;100236.16;4974189;28;19918;-88
2024/03/17 08:43:11;;;;;;;;;;;;;;;5.82;100.00;100232.56;4957133;28;19950;-88
2024/03/17 08:45:37;;;;;;;;;;;;;;;5.83;100.00;100236.94;4956980;28;19965;-88
2024/03/17 08:48:03;;;;;;;;;;;;;;;5.81;100.00;100236.13;4974394;28;19922;-88
2024/03/17 08:50:28;;;;;;;;;;;;;;;5.87;100.00;100238.66;4974197;28;19918;-88
2024/03/17 08:52:53;;;;;;;;;;;;;;;5.82;100.00;100233.47;4955505;28;19922;-88
2024/03/17 08:55:19;;;;;;;;;;;;;;;5.82;100.00;100236.09;4974215;28;20400;-88
2024/03/17 08:57:44;;;;;;;;;;;;;;;5.87;100.00;100228.13;4974069;28;19961;-89
2024/03/17 09:00:09;;;;;;;;;;;;;;;5.83;100.00;100231.69;4956762;28;19922;-87
2024/03/17 09:02:34;;;;;;;;;;;;;;;5.85;100.00;100224.63;4974033;28;19918;-88
2024/03/17 09:05:00;;;;;;;;;;;;;;;5.86;100.00;100218.50;4973794;28;19918;-87
2024/03/17 09:07:25;;;;;;;;;;;;;;;5.86;100.00;100220.25;4971828;28;19933;-88
2024/03/17 09:09:50;;;;;;;;;;;;;;;5.86;100.00;100226.38;4973896;28;19925;-87
2024/03/17 09:12:16;;;;;;;;;;;;;;;5.86;100.00;100230.78;4973878;28;20322;-87
2024/03/17 09:14:41;;;;;;;;;;;;;;;5.91;100.00;100228.94;4973010;28;19925;-87
2024/03/17 09:17:07;;;;;;;;;;;;;;;5.88;100.00;100223.72;4973718;28;19972;-87
2024/03/17 09:19:33;;;;;;;;;;;;;;;5.88;100.00;100215.84;4973727;28;19925;-86
2024/03/17 09:21:58;;;;;;;;;;;;;;;5.90;100.00;100214.03;4973534;28;19961;-87
2024/03/17 09:24:24;;;;;;;;;;;;;;;5.90;100.00;100212.28;4978316;28;19976;-87
2024/03/17 09:26:49;;;;;;;;;;;;;;;5.91;100.00;100210.53;4992910;28;19918;-86
2024/03/17 09:29:17;;;;;;;;;;;;;;;5.89;100.00;100209.66;4993055;28;19929;-88
2024/03/17 09:31:42;;;;;;;;;;;;;;;5.93;100.00;100216.63;4992941;28;19918;-85
2024/03/17 09:34:08;;;;;;;;;;;;;;;5.95;100.00;100220.97;4992829;28;20398;-87
2024/03/17 09:36:35;;;;;;;;;;;;;;;5.93;100.00;100216.63;4993038;28;19918;-87
2024/03/17 09:39:03;;;;;;;;;;;;;;;5.91;100.00;100219.28;4973878;28;20273;-87
2024/03/17 09:41:29;;;;;;;;;;;;;;;5.90;100.00;100212.28;4992708;28;19922;-85
2024/03/17 09:43:55;;;;;;;;;;;;;;;5.94;100.00;100208.72;4992830;28;19924;-86
2024/03/17 09:46:22;;;;;;;;;;;;;;;5.93;100.00;100212.22;4992711;28;19924;-85
2024/03/17 09:48:48;;;;;;;;;;;;;;;5.93;100.00;100212.22;4992586;28;20008;-86
2024/03/17 09:51:18;;;;;;;;;;;;;;;5.96;100.00;100212.19;4992728;28;20005;-86
2024/03/17 09:53:43;;;;;;;;;;;;;;;5.96;100.00;100203.41;4991379;28;19965;-85
2024/03/17 09:56:16;;;;;;;;;;;;;;;5.94;100.00;100198.19;4992785;28;19991;-87
2024/03/17 09:58:42;;;;;;;;;;;;;;;5.97;100.00;100199.94;4992608;28;19918;-87
2024/03/17 10:01:07;;;;;;;;;;;;;;;5.97;100.00;100203.44;4992500;28;19928;-84
2024/03/17 10:03:42;;;;;;;;;;;;;;;5.97;100.00;100203.44;4992423;28;20012;-86
2024/03/17 10:06:10;;;;;;;;;;;;;;;6.08;100.00;100191.84;4992131;28;19918;-86
2024/03/17 10:08:39;;;;;;;;;;;;;;;6.06;100.00;100191.00;4990564;28;19918;-88
2024/03/17 10:11:05;;;;;;;;;;;;;;;6.05;100.00;100184.00;4975143;28;19964;-86
2024/03/17 10:13:31;;;;;;;;;;;;;;;6.00;100.00;100174.44;4975004;28;19922;-88
2024/03/17 10:15:56;;;;;;;;;;;;;;;6.07;100.00;100172.56;4992362;28;19929;-87
2024/03/17 10:18:24;;;;;;;;;;;;;;;6.05;100.00;100173.47;4993994;28;19972;-88
2024/03/17 10:20:56;;;;;;;;;;;;;;;6.02;100.00;100179.69;4978692;28;20395;-87
2024/03/17 10:23:21;;;;;;;;;;;;;;;6.07;100.00;100169.06;4994982;28;19922;-86
2024/03/17 10:25:46;;;;;;;;;;;;;;;6.08;100.00;100171.69;4995251;28;19926;-87
2024/03/17 10:28:12;;;;;;;;;;;;;;;6.02;100.00;100173.56;4996147;28;20350;-87
2024/03/17 10:30:39;;;;;;;;;;;;;;;6.01;100.00;100177.94;4996313;28;19922;-87
2024/03/17 10:33:07;;;;;;;;;;;;;;;6.11;100.00;100173.38;4978359;28;20388;-87
2024/03/17 10:35:34;;;;;;;;;;;;;;;6.06;100.00;100167.31;4996221;28;19922;-86
2024/03/17 10:38:04;;;;;;;;;;;;;;;6.05;100.00;100174.38;4994879;28;19975;-85
2024/03/17 10:40:29;;;;;;;;;;;;;;;6.05;100.00;100165.56;4978549;28;19961;-85
2024/03/17 14:02:28;;;;;;;;;;;;;;;6.38;100.00;99982.47;5018017;28;19979;-83
2024/03/17 14:04:53;;;;;;;;;;;;;;;6.32;100.00;99980.00;5004327;28;19925;-83
2024/03/17 14:07:18;;;;;;;;;;;;;;;6.30;100.00;99977.41;5003568;28;19921;-82
2024/03/17 14:09:43;;;;;;;;;;;;;;;6.34;100.00;99975.56;5021851;28;19922;-86
2024/03/17 14:12:09;;;;;;;;;;;;;;;6.42;100.00;99983.28;5016773;28;19918;-90
2024/03/17 14:14:34;;;;;;;;;;;;;;;6.39;100.00;99978.09;4999029;28;19921;-82
2024/03/17 14:16:59;;;;;;;;;;;;;;;6.40;100.00;99991.22;5020118;28;19921;-81
2024/03/17 14:19:25;;;;;;;;;;;;;;;6.39;100.00;99978.09;5019088;28;19928;-81
2024/03/17 14:21:50;;;;;;;;;;;;;;;6.38;100.00;99968.44;5018756;28;19975;-82
2024/03/17 14:24:19;;;;;;;;;;;;;;;6.39;100.00;99963.16;5020353;28;19972;-83
2024/03/17 14:29:50;;;;;;;;;;;;;;;6.41;100.00;99961.34;4938590;29;20017;-85
2024/03/17 14:32:49;;;;;;;;;;;;;;;6.38;100.00;99955.28;5003882;28;20522;-83
2024/03/17 14:35:15;;;;;;;;;;;;;;;6.38;100.00;99956.13;5021100;28;20015;-82
2024/03/17 14:37:42;;;;;;;;;;;;;;;6.39;100.00;99957.03;5019823;28;19928;-80
2024/03/17 14:40:14;;;;;;;;;;;;;;;6.38;100.00;99957.91;5018700;28;19921;-82
2024/03/17 14:43:12;;;;;;;;;;;;;;;6.42;100.00;99964.84;5004852;28;19925;-83
2024/03/17 14:45:38;;;;;;;;;;;;;;;6.40;100.00;99964.00;4979818;28;19917;-84
2024/03/17 14:48:43;;;;;;;;;;;;;;;6.43;100.00;99956.03;5021215;28;19924;-83
2024/03/17 14:51:08;;;;;;;;;;;;;;;6.41;100.00;99948.19;5020482;28;19921;-83
2024/03/17 14:53:36;;;;;;;;;;;;;;;6.40;100.00;99948.22;5002791;28;19925;-81
2024/03/17 14:56:01;;;;;;;;;;;;;;;6.40;100.00;99943.84;5021107;28;20380;-82
2024/03/17 14:58:26;;;;;;;;;;;;;;;6.45;100.00;99946.34;5019091;28;19921;-81
2024/03/17 15:00:52;;;;;;;;;;;;;;;6.43;100.00;99940.25;5020368;28;19921;-81
2024/03/17 15:03:54;;;;;;;;;;;;;;;6.46;100.00;99937.53;5017762;28;19921;-85
2024/03/17 15:06:20;;;;;;;;;;;;;;;6.45;100.00;99943.72;5024037;28;19928;-82
2024/03/17 15:08:45;;;;;;;;;;;;;;;6.49;100.00;99942.72;5024904;28;20019;-80
2024/03/17 15:11:10;;;;;;;;;;;;;;;6.49;100.00;99943.63;5021853;28;19921;-82
2024/03/17 15:13:43;;;;;;;;;;;;;;;6.51;100.00;99943.56;5025065;28;19925;-82
2024/03/17 15:16:08;;;;;;;;;;;;;;;6.46;100.00;99941.06;5021709;28;19921;-82
2024/03/17 15:18:34;;;;;;;;;;;;;;;6.48;100.00;99938.41;5024739;28;19917;-82
2024/03/17 15:21:00;;;;;;;;;;;;;;;6.49;100.00;99934.84;5024655;28;19999;-82
2024/03/17 15:23:31;;;;;;;;;;;;;;;6.47;100.00;99926.97;5024622;28;19917;-83
2024/03/17 15:26:01;;;;;;;;;;;;;;;6.51;100.00;99927.75;5023229;28;19925;-85
2024/03/17 15:28:26;;;;;;;;;;;;;;;6.48;100.00;99927.88;5024302;28;20277;-82
2024/03/17 15:30:51;;;;;;;;;;;;;;;6.51;100.00;99923.38;5021446;28;19949;-84
2024/03/17 15:33:16;;;;;;;;;;;;;;;6.47;100.00;99923.50;5024610;28;19917;-82
2024/03/17 15:38:09;;;;;;;;;;;;;;;6.48;100.00;99930.50;5003685;28;19926;-81
2024/03/17 15:40:36;;;;;;;;;;;;;;;6.50;100.00;99923.41;4987612;28;20300;-83
2024/03/17 15:43:03;;;;;;;;;;;;;;;6.50;100.00;99923.41;4986985;28;19928;-81
2024/03/17 15:45:28;;;;;;;;;;;;;;;7.96;100.00;99915.97;5001068;28;19969;-81
2024/03/17 15:47:53;;;;;;;;;;;;;;;6.97;100.00;99913.44;5005074;28;19964;-81
2024/03/17 15:50:18;;;;;;;;;;;;;;;6.83;100.00;99919.09;4986061;28;20014;-80
2024/03/17 15:52:44;;;;;;;;;;;;;;;6.80;100.00;99916.53;4987168;28;19941;-80
2024/03/17 15:55:10;;;;;;;;;;;;;;;6.75;100.00;99907.88;4986431;28;19922;-83
2024/03/17 15:57:36;;;;;;;;;;;;;;;6.76;100.00;99912.22;4999546;28;19922;-81
2024/03/17 16:00:02;;;;;;;;;;;;;;;6.77;100.00;99910.47;5002920;28;20311;-80
2024/03/17 16:02:28;;;;;;;;;;;;;;;6.69;100.00;99901.00;5003469;28;19922;-80
2024/03/17 16:04:55;;;;;;;;;;;;;;;6.78;100.00;99901.66;5004294;28;19984;-80
2024/03/17 16:07:20;;;;;;;;;;;;;;;6.65;100.00;99903.75;5004306;28;19922;-82
2024/03/17 16:09:47;;;;;;;;;;;;;;;6.67;100.00;99897.53;5004386;28;19924;-80
2024/03/17 16:12:14;;;;;;;;;;;;;;;6.64;100.00;99899.41;4987062;28;19922;-80
2024/03/17 16:14:40;;;;;;;;;;;;;;;6.64;100.00;99894.13;4985211;28;20016;-81
2024/03/17 16:17:08;;;;;;;;;;;;;;;6.67;100.00;99888.75;4986329;28;19964;-82
2024/03/17 16:19:33;;;;;;;;;;;;;;;6.62;100.00;99891.53;5004204;28;19921;-80
2024/03/17 16:21:58;;;;;;;;;;;;;;;6.62;100.00;99886.28;5002195;28;20435;-80
2024/03/17 16:24:24;;;;;;;;;;;;;;;6.68;100.00;99886.09;5004969;28;20555;-81
2024/03/17 16:26:49;;;;;;;;;;;;;;;6.68;100.00;99880.81;4985929;28;19922;-87
2024/03/17 16:29:15;;;;;;;;;;;;;;;6.66;100.00;99874.72;5002376;28;19972;-81
2024/03/17 16:31:43;;;;;;;;;;;;;;;6.64;100.00;99875.69;5004204;28;19922;-88
2024/03/17 16:34:09;;;;;;;;;;;;;;;6.65;100.00;99874.78;5003518;28;19963;-82
2024/03/17 16:36:39;;;;;;;;;;;;;;;6.63;100.00;99874.81;5002842;28;20461;-91
2024/03/17 16:39:06;;;;;;;;;;;;;;;6.63;100.00;99877.44;4986922;28;19925;-83
2024/03/17 16:41:32;;;;;;;;;;;;;;;6.67;100.00;99873.84;5003519;28;19978;-83
2024/03/17 16:44:05;;;;;;;;;;;;;;;6.63;100.00;99872.19;5002554;28;20392;-82
2024/03/17 16:46:48;;;;;;;;;;;;;;;6.61;100.00;99878.41;5003539;28;20293;-84
2024/03/17 16:49:23;;;;;;;;;;;;;;;6.65;100.00;99880.03;4997518;28;19926;-82
2024/03/17 16:51:49;;;;;;;;;;;;;;;6.68;100.00;99877.34;4986303;28;20325;-83
2024/03/17 16:54:15;;;;;;;;;;;;;;;6.62;100.00;99873.09;5001442;28;20000;-82
2024/03/17 16:56:41;;;;;;;;;;;;;;;6.59;100.00;99874.94;5002709;28;19925;-80
2024/03/17 16:59:06;;;;;;;;;;;;;;;6.61;100.00;99875.78;5002293;28;19925;-81
2024/03/17 17:01:32;;;;;;;;;;;;;;;6.59;100.00;99874.94;5002315;28;20416;-80
2024/03/17 17:03:57;;;;;;;;;;;;;;;6.59;100.00;99881.06;5002530;28;20380;-80
2024/03/17 17:06:23;;;;;;;;;;;;;;;6.63;100.00;99873.97;5002259;28;19914;-80
2024/03/17 17:08:57;;;;;;;;;;;;;;;6.61;100.00;99876.63;5002627;28;20376;-81
2024/03/17 17:14:30;;;;;;;;;;;;;;;6.66;100.00;99876.50;5002228;28;20000;-80
2024/03/17 17:16:55;;;;;;;;;;;;;;;6.62;100.00;99878.38;5002657;28;19913;-84
2024/03/17 17:19:20;;;;;;;;;;;;;;;6.63;100.00;99877.44;5001225;28;20328;-80
2024/03/17 17:21:50;;;;;;;;;;;;;;;6.62;100.00;99881.00;4984255;28;19921;-81
2024/03/17 17:24:24;;;;;;;;;;;;;;;6.61;100.00;99879.25;5002726;28;19924;-81
2024/03/17 17:27:21;;;;;;;;;;;;;;;6.62;100.00;99865.19;5002438;28;20493;-81
2024/03/17 17:29:47;;;;;;;;;;;;;;;6.64;100.00;99863.38;4992120;28;19927;-83
2024/03/17 17:32:13;;;;;;;;;;;;;;;6.65;100.00;99869.50;5002988;28;19913;-83
2024/03/17 17:34:38;;;;;;;;;;;;;;;6.65;100.00;99862.50;4984470;28;19932;-83
2024/03/17 17:37:04;;;;;;;;;;;;;;;6.63;100.00;99856.38;5001949;28;19929;-84
2024/03/17 17:39:30;;;;;;;;;;;;;;;6.65;100.00;99859.88;5003347;28;19918;-88
2024/03/17 17:41:56;;;;;;;;;;;;;;;6.59;100.00;99867.03;4985061;28;19917;-82
2024/03/17 17:44:57;;;;;;;;;;;;;;;6.63;100.00;99864.28;5001258;28;20025;-86
2024/03/17 17:47:24;;;;;;;;;;;;;;;6.57;100.00;99868.84;4922259;29;19927;-83
2024/03/17 17:50:04;;;;;;;;;;;;;;;6.57;100.00;99871.47;4922828;29;20078;-82
2024/03/17 17:52:29;;;;;;;;;;;;;;;6.62;100.00;99875.72;4924013;29;19927;-82
2024/03/17 17:54:54;;;;;;;;;;;;;;;6.60;100.00;99874.03;4922993;29;19923;-83
2024/03/17 17:57:19;;;;;;;;;;;;;;;6.60;100.00;99877.53;4959875;28;19925;-83
2024/03/17 18:02:47;;;;;;;;;;;;;;;6.79;100.00;99877.06;5129557;23;19931;-82
2024/03/17 18:05:13;;;;;;;;;;;;;;;6.77;100.00;99879.72;5012128;28;19921;-87
2024/03/17 18:07:39;;;;;;;;;;;;;;;6.74;100.00;99885.06;4994489;28;19918;-82
2024/03/17 18:10:05;;;;;;;;;;;;;;;6.75;100.00;99880.66;4994576;28;20395;-83
2024/03/17 18:12:30;;;;;;;;;;;;;;;6.75;100.00;99884.19;5012160;28;19925;-82
2024/03/17 18:14:56;;;;;;;;;;;;;;;6.81;100.00;99883.16;5010907;28;19951;-83
2024/03/17 18:17:21;;;;;;;;;;;;;;;6.80;100.00;99886.69;5012145;28;19965;-82
2024/03/17 18:19:46;;;;;;;;;;;;;;;6.82;100.00;99879.63;5012084;28;20324;-83
2024/03/17 18:24:47;;;;;;;;;;;;;;;6.80;100.00;99889.34;5001707;23;19930;-83
2024/03/17 18:27:13;;;;;;;;;;;;;;;6.84;100.00;99885.69;4954961;28;19994;-83
2024/03/17 18:29:39;;;;;;;;;;;;;;;6.83;100.00;99884.84;4971265;28;20281;-85
2024/03/17 18:32:04;;;;;;;;;;;;;;;6.84;100.00;99881.28;4973216;28;19992;-82
2024/03/17 18:37:32;;;;;;;;;;;;;;;6.83;100.00;99878.69;4972754;28;19925;-84
2024/03/17 18:39:57;;;;;;;;;;;;;;;6.82;100.00;99879.63;4957509;28;19922;-81
2024/03/17 18:42:23;;;;;;;;;;;;;;;6.85;100.00;99876.91;4975566;28;20359;-82
2024/03/17 18:44:49;;;;;;;;;;;;;;;6.82;100.00;99872.56;4975252;28;19922;-82
2024/03/17 18:47:14;;;;;;;;;;;;;;;6.77;100.00;99866.56;4988387;23;20007;-81
2024/03/17 18:49:39;;;;;;;;;;;;;;;6.81;100.00;99870.88;4957047;29;20379;-81
2024/03/17 18:52:05;;;;;;;;;;;;;;;6.79;100.00;99866.53;4957240;29;19997;-82
2024/03/17 18:54:31;;;;;;;;;;;;;;;6.85;100.00;99879.53;4957063;29;19969;-82
2024/03/17 18:57:19;;;;;;;;;;;;;;;6.82;100.00;99879.63;4956827;29;19929;-85
2024/03/17 18:59:44;;;;;;;;;;;;;;;6.76;100.00;99871.88;4935656;29;20429;-83
2024/03/17 19:02:11;;;;;;;;;;;;;;;6.81;100.00;99876.13;4956852;29;19966;-82
2024/03/17 19:04:37;;;;;;;;;;;;;;;6.87;100.00;99864.56;4955850;28;20397;-82
2024/03/17 19:07:03;;;;;;;;;;;;;;;6.81;100.00;99869.97;4939721;29;19918;-81
2024/03/17 19:09:28;;;;;;;;;;;;;;;6.81;100.00;99862.06;4956064;28;19997;-82
2024/03/17 19:11:54;;;;;;;;;;;;;;;6.73;100.00;99857.88;4939436;29;19919;-81
2024/03/17 19:14:19;;;;;;;;;;;;;;;6.84;100.00;99848.81;4955592;29;20326;-82
2024/03/17 19:16:48;;;;;;;;;;;;;;;6.85;100.00;99847.94;4939292;29;20286;-83
2024/03/17 19:19:13;;;;;;;;;;;;;;;6.83;100.00;99849.72;4956135;28;19938;-81
2024/03/17 19:21:45;;;;;;;;;;;;;;;6.84;100.00;99840.94;4955350;28;19927;-85
2024/03/17 19:24:29;;;;;;;;;;;;;;;6.83;100.00;99837.44;4939529;29;19946;-83
2024/03/17 19:26:56;;;;;;;;;;;;;;;6.80;100.00;99848.06;4956529;29;20013;-82
2024/03/17 19:29:21;;;;;;;;;;;;;;;6.85;100.00;99840.03;4954895;28;19954;-82
2024/03/17 19:31:47;;;;;;;;;;;;;;;6.77;100.00;99847.28;4955234;29;20663;-81
2024/03/17 19:34:12;;;;;;;;;;;;;;;6.85;100.00;99850.56;4939068;29;19930;-81
2024/03/17 19:36:38;;;;;;;;;;;;;;;6.82;100.00;99843.59;4956475;29;19982;-82
2024/03/17 19:39:04;;;;;;;;;;;;;;;6.77;100.00;99845.50;4955603;29;19937;-81
2024/03/17 19:41:29;;;;;;;;;;;;;;;6.83;100.00;99847.09;4956178;29;19922;-81
2024/03/17 19:43:56;;;;;;;;;;;;;;;6.75;100.00;99838.53;4953456;28;19922;-81
2024/03/17 19:46:23;;;;;;;;;;;;;;;6.85;100.00;99840.88;4938999;29;20390;-81
2024/03/17 19:48:52;;;;;;;;;;;;;;;6.84;100.00;99843.56;4955070;28;19966;-81
2024/03/17 19:51:22;;;;;;;;;;;;;;;6.86;100.00;99841.75;4953974;28;20013;-81
2024/03/17 19:53:47;;;;;;;;;;;;;;;6.81;100.00;99835.75;4953724;29;20017;-80
2024/03/17 19:56:13;;;;;;;;;;;;;;;6.74;100.00;99832.41;4955959;29;20005;-81
2024/03/17 19:58:39;;;;;;;;;;;;;;;6.73;100.00;99836.81;4938429;29;19922;-81
2024/03/17 20:01:05;;;;;;;;;;;;;;;6.71;100.00;99833.34;4954454;28;19957;-83
2024/03/17 20:03:30;;;;;;;;;;;;;;;6.73;100.00;99834.19;4955353;28;19937;-81
2024/03/17 20:05:56;;;;;;;;;;;;;;;6.73;100.00;99836.81;4955364;28;19926;-81
2024/03/17 20:08:21;;;;;;;;;;;;;;;6.73;100.00;99838.56;4955392;28;19926;-83
2024/03/17 20:10:48;;;;;;;;;;;;;;;6.72;100.00;99845.63;4956582;29;19918;-81
2024/03/17 20:13:13;;;;;;;;;;;;;;;6.78;100.00;99846.34;4955609;29;19929;-81
2024/03/17 20:16:14;;;;;;;;;;;;;;;6.71;100.00;99846.50;4954479;29;19999;-82
2024/03/17 20:18:39;;;;;;;;;;;;;;;6.73;100.00;99836.81;4955452;29;19957;-82
2024/03/17 20:21:05;;;;;;;;;;;;;;;6.70;100.00;99839.53;4955527;29;19958;-81
2024/03/17 20:23:30;;;;;;;;;;;;;;;6.73;100.00;99835.94;4954694;28;19965;-82
2024/03/17 20:25:55;;;;;;;;;;;;;;;6.72;100.00;99834.22;4955312;29;19918;-79
2024/03/17 20:28:21;;;;;;;;;;;;;;;6.75;100.00;99828.00;4955574;29;19958;-81
2024/03/17 20:30:47;;;;;;;;;;;;;;;6.71;100.00;99833.34;4954176;29;19969;-81
2024/03/17 20:33:12;;;;;;;;;;;;;;;6.70;100.00;99831.63;4954670;29;20386;-81
2024/03/17 20:35:38;;;;;;;;;;;;;;;6.68;100.00;99833.41;4954861;28;20004;-81
2024/03/17 20:38:03;;;;;;;;;;;;;;;6.69;100.00;99824.63;4955341;28;19926;-81
2024/03/17 20:40:29;;;;;;;;;;;;;;;6.76;100.00;99835.00;4954900;29;19921;-81
2024/03/17 20:42:55;;;;;;;;;;;;;;;6.77;100.00;99831.47;4954692;28;20009;-81
2024/03/17 20:45:23;;;;;;;;;;;;;;;6.71;100.00;99835.97;4951693;28;19955;-81
2024/03/17 20:47:49;;;;;;;;;;;;;;;6.70;100.00;99841.28;4962887;28;19926;-81
2024/03/17 20:50:22;;;;;;;;;;;;;;;6.75;100.00;99842.06;4973471;28;19926;-81
2024/03/17 20:52:48;;;;;;;;;;;;;;;6.70;100.00;99833.38;4973490;28;20337;-83
2024/03/17 20:55:15;;;;;;;;;;;;;;;6.78;100.00;99825.28;4972821;28;19976;-80
2024/03/17 20:57:41;;;;;;;;;;;;;;;6.77;100.00;99805.13;4973336;28;19973;-81
2024/03/17 21:00:17;;;;;;;;;;;;;;;6.76;100.00;99816.56;4972215;28;20345;-81
2024/03/17 21:02:42;;;;;;;;;;;;;;;6.81;100.00;99806.75;4973314;28;20001;-80
2024/03/17 21:05:08;;;;;;;;;;;;;;;6.73;100.00;99810.50;4974029;28;20024;-81
2024/03/17 21:07:33;;;;;;;;;;;;;;;6.77;100.00;99816.53;4973883;28;19924;-81
2024/03/17 21:09:58;;;;;;;;;;;;;;;6.78;100.00;99812.13;4973751;28;20393;-82
2024/03/17 21:12:23;;;;;;;;;;;;;;;6.76;100.00;99821.84;4973833;28;19972;-81
2024/03/17 21:14:51;;;;;;;;;;;;;;;6.69;100.00;99814.09;4972611;28;19977;-80
2024/03/17 21:17:16;;;;;;;;;;;;;;;6.70;100.00;99812.31;4971879;28;19925;-82
2024/03/17 21:19:42;;;;;;;;;;;;;;;6.79;100.00;99812.06;4973920;28;20008;-81
2024/03/17 21:22:07;;;;;;;;;;;;;;;6.72;100.00;99808.75;4973674;28;19929;-87
2024/03/17 21:24:34;;;;;;;;;;;;;;;6.76;100.00;99813.94;4973720;28;20293;-80
2024/03/17 21:26:59;;;;;;;;;;;;;;;6.79;100.00;99811.22;4956221;28;20347;-80
2024/03/17 21:29:24;;;;;;;;;;;;;;;6.82;100.00;99808.50;4955069;28;19946;-80
2024/03/17 21:31:50;;;;;;;;;;;;;;;6.80;100.00;99810.31;4973400;28;19922;-80
2024/03/17 21:34:15;;;;;;;;;;;;;;;6.80;100.00;99815.59;4973663;28;20356;-80
2024/03/17 21:36:40;;;;;;;;;;;;;;;6.82;100.00;99824.31;4973461;28;20415;-80
2024/03/17 21:39:07;;;;;;;;;;;;;;;6.84;100.00;99811.97;4973608;28;19922;-84
2024/03/17 21:41:33;;;;;;;;;;;;;;;6.84;100.00;99812.81;4973351;28;19919;-81
2024/03/17 21:43:58;;;;;;;;;;;;;;;6.80;100.00;99808.56;4972360;28;20131;-80
2024/03/17 21:46:26;;;;;;;;;;;;;;;6.82;100.00;99803.25;4973488;28;20443;-82
2024/03/17 21:48:51;;;;;;;;;;;;;;;6.84;100.00;99804.06;4973275;28;20008;-83
2024/03/17 21:51:16;;;;;;;;;;;;;;;6.80;100.00;99805.06;4973434;28;19961;-83
2024/03/17 21:53:41;;;;;;;;;;;;;;;6.83;100.00;99797.03;4973697;28;20006;-88
2024/03/17 21:56:07;;;;;;;;;;;;;;;6.83;100.00;99802.31;4973332;28;19925;-84
2024/03/17 21:58:32;;;;;;;;;;;;;;;6.81;100.00;99797.13;4956020;28;19922;-82
2024/03/17 22:01:01;;;;;;;;;;;;;;;6.83;100.00;99795.28;4954612;28;19929;-80
2024/03/17 22:03:26;;;;;;;;;;;;;;;6.83;100.00;99787.41;4973423;28;20029;-80